Humidity-temperature Sensor

Selected Measurement Type: Air Temperature

 
Air Temperature [°C]     6 entries per hour
Showing data from 5/9/2015 (00:00:00 Z) to 5/2/2015 (16:20:00 Z)
Previous Next [ Day | 3-Days | 7-Days ]
First Last
Prev [ Day | 3-Days | 7-Days ] Next
First Last

Start Time:     :
End Time:     :     
Time (in GMT) :00 :50 :40 :30 :20 :10
Previous Next [ Day | 3-Days | 7-Days ]
First Last
Prev [ Day | 3-Days | 7-Days ] Next
First Last


123 => good data
MM => data is determined as missing
-- => data not received/configured
Back to Top Back to Top
5/9/2015 00:00 to 23:10 29.26 29.26 29.21 29.18 29.23 29.24
5/8/2015 23:00 to 22:10 28.90 28.56 28.46 28.45 28.93 28.94
5/8/2015 22:00 to 21:10 29.03 28.99 29.05 28.92 27.63 28.73
5/8/2015 21:00 to 20:10 29.43 29.77 29.38 29.50 29.41 29.50
5/8/2015 20:00 to 19:10 29.66 29.61 29.64 29.53 29.55 29.48
5/8/2015 19:00 to 18:10 29.31 29.32 29.50 29.49 29.39 29.24
5/8/2015 18:00 to 17:10 29.27 29.17 29.07 28.99 28.92 28.84
5/8/2015 17:00 to 16:10 28.88 28.89 28.91 29.13 29.14 29.17
5/8/2015 16:00 to 15:10 29.31 29.31 29.20 29.22 29.15 29.34
5/8/2015 15:00 to 14:10 29.26 29.43 28.99 29.17 28.97 29.31
5/8/2015 14:00 to 13:10 28.99 29.04 28.90 28.71 28.64 28.64
5/8/2015 13:00 to 12:10 28.60 28.59 28.59 28.58 28.54 28.48
5/8/2015 12:00 to 11:10 28.51 28.51 28.47 28.53 28.42 28.37
5/8/2015 11:00 to 10:10 28.32 28.33 28.30 28.38 28.29 28.30
5/8/2015 10:00 to 9:10 28.26 28.24 28.17 28.10 28.13 28.20
5/8/2015 09:00 to 8:10 28.20 28.03 28.02 28.01 28.12 28.18
5/8/2015 08:00 to 7:10 28.47 28.26 28.33 28.04 27.94 27.95
5/8/2015 07:00 to 6:10 28.12 27.64 27.25 27.47 27.51 27.92
5/8/2015 06:00 to 5:10 28.60 28.46 28.12 28.08 27.97 27.76
5/8/2015 05:00 to 4:10 27.54 27.82 27.63 27.31 27.06 26.94
5/8/2015 04:00 to 3:10 26.76 26.54 26.22 25.91 25.79 26.49
5/8/2015 03:00 to 2:10 26.01 27.43 28.00 27.97 28.32 27.96
5/8/2015 02:00 to 1:10 28.06 27.73 27.88 28.36 28.55 28.79
5/8/2015 01:00 to 0:10 29.50 29.55 29.86 29.93 29.59 29.57
5/8/2015 00:00 to 23:10 29.35 29.48 29.26 29.25 29.11 29.01
5/7/2015 23:00 to 22:10 29.06 28.94 28.87 28.87 28.83 28.82
5/7/2015 22:00 to 21:10 28.58 28.29 28.05 28.03 28.00 27.57
5/7/2015 21:00 to 20:10 27.35 27.17 27.22 27.16 26.86 26.95
5/7/2015 20:00 to 19:10 26.75 26.90 26.80 26.58 26.44 26.58
5/7/2015 19:00 to 18:10 26.45 26.63 27.33 28.78 29.13 29.07
5/7/2015 18:00 to 17:10 29.09 29.03 28.96 29.01 28.80 28.47
5/7/2015 17:00 to 16:10 28.40 28.42 28.45 28.59 28.41 28.28
5/7/2015 16:00 to 15:10 28.59 28.17 27.88 28.63 28.59 28.49
5/7/2015 15:00 to 14:10 28.75 28.65 28.51 28.48 28.39 28.33
5/7/2015 14:00 to 13:10 28.39 28.41 28.41 28.20 28.40 28.45
5/7/2015 13:00 to 12:10 28.47 28.48 28.64 28.70 28.77 28.41
5/7/2015 12:00 to 11:10 28.12 27.92 28.02 27.80 27.32 26.55
5/7/2015 11:00 to 10:10 26.47 26.71 27.33 26.85 26.67 26.49
5/7/2015 10:00 to 9:10 26.70 27.40 27.23 27.00 26.97 27.10
5/7/2015 09:00 to 8:10 27.34 27.30 27.32 27.36 27.29 27.09
5/7/2015 08:00 to 7:10 27.14 27.19 26.69 26.60 26.52 26.66
5/7/2015 07:00 to 6:10 26.72 26.73 26.94 27.06 27.02 27.06
5/7/2015 06:00 to 5:10 26.95 26.93 27.13 27.14 27.38 27.30
5/7/2015 05:00 to 4:10 27.48 27.80 27.77 27.59 27.84 27.87
5/7/2015 04:00 to 3:10 27.78 27.93 27.90 28.01 27.83 27.65
5/7/2015 03:00 to 2:10 27.72 27.49 27.42 27.22 27.25 27.22
5/7/2015 02:00 to 1:10 27.38 27.64 27.75 27.49 27.78 28.26
5/7/2015 01:00 to 0:10 28.52 28.80 28.82 28.94 29.29 29.05
5/7/2015 00:00 to 23:10 28.82 28.80 28.77 28.27 28.03 27.54
5/6/2015 23:00 to 22:10 27.30 27.77 28.24 28.51 28.55 28.09
5/6/2015 22:00 to 21:10 27.85 27.76 27.47 26.85 26.91 27.11
5/6/2015 21:00 to 20:10 27.50 28.26 28.28 28.51 28.58 28.44
5/6/2015 20:00 to 19:10 28.37 28.39 28.28 28.28 28.48 28.63
5/6/2015 19:00 to 18:10 28.58 28.66 28.57 28.48 28.52 28.39
5/6/2015 18:00 to 17:10 28.37 28.40 28.41 28.44 28.39 28.36
5/6/2015 17:00 to 16:10 28.32 28.35 28.24 28.24 28.23 28.33
5/6/2015 16:00 to 15:10 28.21 28.26 28.26 28.09 28.12 28.07
5/6/2015 15:00 to 14:10 28.03 27.86 27.84 27.86 27.72 27.66
5/6/2015 14:00 to 13:10 27.59 27.59 27.53 27.45 27.37 27.34
5/6/2015 13:00 to 12:10 27.28 27.23 27.24 27.16 27.28 27.29
5/6/2015 12:00 to 11:10 27.22 27.31 27.21 27.29 27.28 27.16
5/6/2015 11:00 to 10:10 27.20 27.31 27.31 27.32 27.38 27.13
5/6/2015 10:00 to 9:10 26.93 26.93 26.82 27.03 27.08 27.04
5/6/2015 09:00 to 8:10 27.22 27.19 27.65 28.07 28.24 28.44
5/6/2015 08:00 to 7:10 28.58 28.55 28.61 28.54 28.56 28.57
5/6/2015 07:00 to 6:10 28.60 28.58 28.86 28.79 28.80 28.78
5/6/2015 06:00 to 5:10 28.85 28.77 28.79 28.70 28.68 28.63
5/6/2015 05:00 to 4:10 28.53 28.44 28.37 28.25 28.33 28.25
5/6/2015 04:00 to 3:10 28.16 28.10 27.82 27.73 27.83 27.95
5/6/2015 03:00 to 2:10 28.44 29.04 29.22 29.19 29.09 29.10
5/6/2015 02:00 to 1:10 29.09 29.13 29.24 29.24 29.44 29.40
5/6/2015 01:00 to 0:10 29.53 29.74 30.32 30.07 30.11 29.83
5/6/2015 00:00 to 23:10 29.99 29.90 29.69 29.41 29.74 29.44
5/5/2015 23:00 to 22:10 29.21 29.46 29.29 29.11 29.17 29.00
5/5/2015 22:00 to 21:10 29.03 29.04 28.92 28.82 28.80 28.73
5/5/2015 21:00 to 20:10 28.55 28.62 28.89 29.06 28.88 28.95
5/5/2015 20:00 to 19:10 28.92 28.76 28.72 28.77 28.54 28.59
5/5/2015 19:00 to 18:10 28.50 28.51 28.44 28.50 28.47 28.54
5/5/2015 18:00 to 17:10 28.42 28.40 28.35 28.47 28.39 28.28
5/5/2015 17:00 to 16:10 28.34 28.38 28.44 28.35 28.33 28.38
5/5/2015 16:00 to 15:10 28.55 28.68 28.36 28.29 28.29 28.27
5/5/2015 15:00 to 14:10 28.29 28.30 28.22 28.46 28.32 28.23
5/5/2015 14:00 to 13:10 28.16 28.19 28.03 27.96 27.83 27.86
5/5/2015 13:00 to 12:10 27.81 27.73 27.73 27.73 27.68 27.69
5/5/2015 12:00 to 11:10 27.65 27.74 27.78 27.73 27.70 27.69
5/5/2015 11:00 to 10:10 27.70 27.66 27.67 27.71 27.61 27.62
5/5/2015 10:00 to 9:10 27.62 27.64 27.62 27.64 27.59 27.60
5/5/2015 09:00 to 8:10 27.61 27.58 27.56 27.60 27.61 27.67
5/5/2015 08:00 to 7:10 27.59 27.57 27.58 27.69 27.61 27.64
5/5/2015 07:00 to 6:10 27.63 27.57 27.63 27.58 27.66 27.63
5/5/2015 06:00 to 5:10 27.57 27.59 27.61 27.54 27.56 27.49
5/5/2015 05:00 to 4:10 27.42 27.39 27.46 27.44 27.39 27.38
5/5/2015 04:00 to 3:10 27.36 27.28 27.32 27.20 27.27 27.13
5/5/2015 03:00 to 2:10 27.17 27.13 27.05 27.15 27.36 27.24
5/5/2015 02:00 to 1:10 27.43 27.22 27.04 27.32 27.31 27.27
5/5/2015 01:00 to 0:10 27.37 27.34 27.30 26.91 26.87 26.77
5/5/2015 00:00 to 23:10 26.66 26.59 26.45 26.51 26.84 26.77
5/4/2015 23:00 to 22:10 26.87 26.98 27.11 27.02 26.94 27.16
5/4/2015 22:00 to 21:10 27.08 27.06 27.14 27.16 27.07 26.88
5/4/2015 21:00 to 20:10 27.37 28.00 27.67 27.68 27.92 28.41
5/4/2015 20:00 to 19:10 28.58 28.34 28.52 28.56 28.37 28.24
5/4/2015 19:00 to 18:10 28.39 28.33 28.22 28.12 28.00 27.87
5/4/2015 18:00 to 17:10 -- -- -- -- -- --
5/4/2015 17:00 to 16:10 27.77 27.65 27.73 27.38 27.16 27.01
5/4/2015 16:00 to 15:10 26.37 26.18 25.95 26.00 25.80 25.72
5/4/2015 15:00 to 14:10 25.48 25.27 25.18 25.25 25.46 25.28
5/4/2015 14:00 to 13:10 25.16 25.32 25.45 25.49 25.58 25.49
5/4/2015 13:00 to 12:10 25.73 25.85 25.60 25.84 26.20 26.64
5/4/2015 12:00 to 11:10 26.85 27.64 27.59 27.41 27.26 27.55
5/4/2015 11:00 to 10:10 27.81 27.85 27.41 27.18 27.44 27.34
5/4/2015 10:00 to 9:10 27.65 27.29 27.08 27.14 27.18 26.58
5/4/2015 09:00 to 8:10 26.68 26.53 26.69 26.58 26.74 27.09
5/4/2015 08:00 to 7:10 27.35 27.77 27.57 28.09 27.90 28.22
5/4/2015 07:00 to 6:10 28.57 28.57 28.56 28.60 28.68 28.61
5/4/2015 06:00 to 5:10 28.60 28.64 28.55 28.65 28.51 28.27
5/4/2015 05:00 to 4:10 28.15 28.09 27.93 27.90 27.74 27.96
5/4/2015 04:00 to 3:10 27.78 27.26 27.34 27.27 27.95 28.04
5/4/2015 03:00 to 2:10 28.64 28.58 28.65 28.59 28.73 28.80
5/4/2015 02:00 to 1:10 28.86 28.95 28.95 28.85 28.90 28.84
5/4/2015 01:00 to 0:10 28.77 28.74 28.81 28.79 29.22 29.20
5/4/2015 00:00 to 23:10 29.45 29.47 29.14 28.88 28.85 28.86
5/3/2015 23:00 to 22:10 28.67 28.65 28.71 28.75 28.40 27.85
5/3/2015 22:00 to 21:10 27.85 27.91 27.95 27.56 27.31 27.21
5/3/2015 21:00 to 20:10 27.62 27.90 27.91 28.37 28.87 28.92
5/3/2015 20:00 to 19:10 28.87 28.87 28.85 28.88 28.84 28.83
5/3/2015 19:00 to 18:10 28.83 28.78 28.97 28.83 28.85 28.84
5/3/2015 18:00 to 17:10 28.83 28.82 28.75 28.70 28.73 28.69
5/3/2015 17:00 to 16:10 28.76 28.72 28.64 28.61 28.47 28.44
5/3/2015 16:00 to 15:10 28.56 28.54 28.55 28.27 28.27 28.26
5/3/2015 15:00 to 14:10 28.28 28.30 28.30 28.29 28.33 28.42
5/3/2015 14:00 to 13:10 28.53 28.24 28.03 28.01 28.04 28.03
5/3/2015 13:00 to 12:10 27.95 27.94 27.93 27.97 27.98 27.97
5/3/2015 12:00 to 11:10 27.94 28.04 27.98 28.04 27.95 28.00
5/3/2015 11:00 to 10:10 27.97 27.95 27.96 27.89 27.88 27.87
5/3/2015 10:00 to 9:10 27.87 27.82 27.84 27.77 27.82 27.76
5/3/2015 09:00 to 8:10 -- -- -- -- -- --
5/3/2015 08:00 to 7:10 27.76 27.67 27.72 27.84 27.82 28.20
5/3/2015 07:00 to 6:10 28.11 28.11 28.08 28.10 28.07 28.07
5/3/2015 06:00 to 5:10 28.10 28.05 28.09 28.09 28.15 28.11
5/3/2015 05:00 to 4:10 28.13 28.11 28.12 28.14 28.22 28.09
5/3/2015 04:00 to 3:10 28.19 28.03 28.09 28.00 28.09 28.10
5/3/2015 03:00 to 2:10 28.04 27.97 27.99 27.88 27.83 27.74
5/3/2015 02:00 to 1:10 27.63 27.55 27.28 27.66 28.45 28.33
5/3/2015 01:00 to 0:10 28.39 28.53 28.76 28.88 28.58 28.62
5/3/2015 00:00 to 23:10 28.92 28.92 28.62 28.48 28.48 28.48
5/2/2015 23:00 to 22:10 28.29 28.32 28.43 28.36 28.68 28.77
5/2/2015 22:00 to 21:10 28.62 28.32 28.20 27.81 27.94 28.02
5/2/2015 21:00 to 20:10 28.03 27.95 27.67 27.55 27.43 27.30
5/2/2015 20:00 to 19:10 27.21 27.41 27.52 27.71 27.74 28.20
5/2/2015 19:00 to 18:10 28.14 28.53 28.54 28.92 29.21 28.84
5/2/2015 18:00 to 17:10 28.87 28.74 28.65 28.59 28.71 28.64
5/2/2015 17:00 to 16:10 28.61 28.53 28.54 28.55 28.59 --